»·PEaware :: N6929D KVNY-KOKB

N6929D :: KVNY-KOKB

FLIGHT INFORMATION

Flight Status: Arrived
Operator: Privately registered:
United States
More flights under this callsign
Pilot: James H. (1562)
Aircraft: PIPER PA-22 TRI PACER/CARIBBEAN
(PA22)
More flights by this aircraft type
Origin: KVNY Van Nuys
United States
Destination: KOKB Oceanside Mun
United States
More flights between these airports :: More routes between these airports
Route: +
File this flight plan on PilotEdge
Remarks:
Altitude:
(Current/Filed)
9,500ft
Speed:
(Current/Filed)
0kts
Departed: 03-Feb-13 02:37 PM
Arrived: 03-Feb-13 03:31 PM
Distance/Time
Traveled:
82nm/0:54
Distance/Time
To Go:
Arrived

Flight Plot

Page will automatically refresh every two minutes.

Flight plan parsing failed; only flown route is shown


Map Options




Map Legend


Flown Route
Filed Route
Departure Airport
Arrival Airport
Navaid (VOR, NDB)
Fix

Horizontal Profiles

Position Reports

Time Latitude Longitude Heading Altitude Ground
Speed
03-Feb-13 14:22 34.198196 -118.488042 351 805ft 0kts
03-Feb-13 14:23 34.198201 -118.488043 351 805ft 0kts
03-Feb-13 14:24 34.198207 -118.488044 351 805ft 0kts
03-Feb-13 14:25 34.198213 -118.488045 351 805ft 0kts
03-Feb-13 14:26 34.198218 -118.488046 351 805ft 0kts
03-Feb-13 14:27 34.198224 -118.488047 351 805ft 0kts
03-Feb-13 14:28 34.198230 -118.488048 351 805ft 0kts
03-Feb-13 14:29 34.198236 -118.488049 351 805ft 0kts
03-Feb-13 14:30 34.198242 -118.488050 351 805ft 0kts
03-Feb-13 14:31 34.198247 -118.488051 351 805ft 0kts
03-Feb-13 14:32 34.198253 -118.488052 351 805ft 0kts
03-Feb-13 14:33 34.198259 -118.488053 351 805ft 0kts
03-Feb-13 14:34 34.198264 -118.488054 351 805ft 0kts
03-Feb-13 14:35 34.198242 -118.488363 176 805ft 2kts
03-Feb-13 14:36 34.196866 -118.488370 204 805ft 4kts
03-Feb-13 14:37 34.196772 -118.488531 248 805ft 0kts
03-Feb-13 14:38 34.198787 -118.489391 355 805ft 51kts
03-Feb-13 14:39 34.217724 -118.491290 355 1438ft 85kts
03-Feb-13 14:40 34.243880 -118.501907 323 2624ft 89kts
03-Feb-13 14:41 34.248906 -118.527561 245 3279ft 106kts
03-Feb-13 14:42 34.224871 -118.531140 157 3322ft 99kts
03-Feb-13 14:43 34.198672 -118.513496 130 3381ft 99kts
03-Feb-13 14:44 34.184531 -118.492354 110 4061ft 95kts
03-Feb-13 14:45 34.175908 -118.464845 102 4843ft 87kts
03-Feb-13 14:46 34.164835 -118.436026 116 5600ft 90kts
03-Feb-13 14:47 34.147562 -118.414330 137 6384ft 83kts
03-Feb-13 14:48 34.126459 -118.398263 141 6956ft 89kts
03-Feb-13 14:49 34.105810 -118.377331 136 7451ft 98kts
03-Feb-13 14:50 34.089243 -118.356739 134 8082ft 81kts
03-Feb-13 14:51 34.071202 -118.339087 136 8472ft 86kts
03-Feb-13 14:52 34.050512 -118.322571 139 8818ft 93kts
03-Feb-13 14:53 34.026893 -118.299302 129 9070ft 105kts
03-Feb-13 14:54 34.005537 -118.274512 129 9471ft 101kts
03-Feb-13 14:55 33.981739 -118.250744 137 9585ft 115kts
03-Feb-13 14:56 33.953405 -118.229325 144 9556ft 124kts
03-Feb-13 14:57 33.922924 -118.209329 155 9589ft 122kts
03-Feb-13 14:58 33.894186 -118.187585 154 9434ft 125kts
03-Feb-13 14:59 33.868160 -118.160858 131 9532ft 121kts
03-Feb-13 15:00 33.846447 -118.127779 125 9488ft 129kts
03-Feb-13 15:01 33.824196 -118.095966 125 9528ft 125kts
03-Feb-13 15:02 33.796420 -118.070869 146 9501ft 129kts
03-Feb-13 15:03 33.769191 -118.043292 133 9459ft 127kts
03-Feb-13 15:04 33.742387 -118.015298 135 9416ft 128kts
03-Feb-13 15:05 33.717007 -117.986457 126 9043ft 122kts
03-Feb-13 15:06 33.696465 -117.954916 119 8401ft 120kts
03-Feb-13 15:07 33.675907 -117.923792 130 7769ft 120kts
03-Feb-13 15:08 33.653730 -117.895602 129 7311ft 108kts
03-Feb-13 15:09 33.631160 -117.867295 130 6670ft 115kts
03-Feb-13 15:10 33.608648 -117.839453 131 6114ft 116kts
03-Feb-13 15:11 33.585862 -117.812174 133 5586ft 117kts
03-Feb-13 15:12 33.557571 -117.788817 152 5549ft 124kts
03-Feb-13 15:13 33.526486 -117.770163 153 5400ft 128kts
03-Feb-13 15:14 33.493686 -117.751665 156 5150ft 126kts
03-Feb-13 15:15 33.462851 -117.735225 153 4945ft 119kts
03-Feb-13 15:16 33.432436 -117.718239 155 4713ft 119kts
03-Feb-13 15:17 33.402327 -117.701442 147 4485ft 120kts
03-Feb-13 15:18 33.375973 -117.675803 138 4343ft 125kts
03-Feb-13 15:19 33.348501 -117.647185 137 3948ft 140kts
03-Feb-13 15:20 33.318243 -117.616017 138 3367ft 144kts
03-Feb-13 15:21 33.287285 -117.584962 139 2801ft 146kts
03-Feb-13 15:22 33.256938 -117.553435 135 2242ft 133kts
03-Feb-13 15:23 33.233886 -117.522460 133 1823ft 125kts
03-Feb-13 15:24 33.213282 -117.493557 114 1794ft 112kts
03-Feb-13 15:25 33.213870 -117.456569 88 1837ft 114kts
03-Feb-13 15:26 33.213549 -117.419098 90 1752ft 108kts
03-Feb-13 15:27 33.213507 -117.384362 86 1345ft 99kts
03-Feb-13 15:28 33.216296 -117.352318 83 1281ft 94kts
03-Feb-13 15:29 33.221008 -117.355472 243 1059ft 81kts
03-Feb-13 15:30 33.210774 -117.375542 191 860ft 77kts
03-Feb-13 15:31 33.217673 -117.353681 77 48ft 80kts
03-Feb-13 15:32 33.217941 -117.349218 260 31ft 14kts
03-Feb-13 15:33 33.217412 -117.351501 178 31ft 4kts
03-Feb-13 15:34 33.217002 -117.351503 180 31ft 0kts
03-Feb-13 15:35 33.216903 -117.351501 200 31ft 1kts
03-Feb-13 15:36 33.216972 -117.351454 257 31ft 0kts
03-Feb-13 15:37 33.216972 -117.351454 257 31ft 0kts
03-Feb-13 15:38 33.216972 -117.351454 257 31ft 0kts
03-Feb-13 15:39 33.216972 -117.351456 257 31ft 0kts
03-Feb-13 15:40 33.216972 -117.351456 257 31ft 0kts
03-Feb-13 15:41 33.216972 -117.351456 257 31ft 0kts
03-Feb-13 15:42 33.216972 -117.351456 257 31ft 0kts
03-Feb-13 15:43 33.216972 -117.351456 257 31ft 0kts
03-Feb-13 15:44 33.216972 -117.351456 257 31ft 0kts
03-Feb-13 15:45 33.216972 -117.351456 257 31ft 0kts
03-Feb-13 15:46 33.216972 -117.351456 257 31ft 0kts

Navigation Log

Ident Type
Flight plan parsing failed, navigation log unavailable